Flight Track Log - Related Links

Times and Time Zones

All times are in EDT time to prevent confusion due to time zone crossing. See the FIN666 flight status page for this flight to view local times or setup timezone preferences in your user account.

Time Position Orientation Groundspeed Altitude Reporting Facility
EDT Latitude Longitude Course Direction KTS MPH feet Rate Location/Type
Wed 07:34:00 AM 55.8329 13.1000 49° Northeast  Level Estimated
Wed 07:35:00 AM 55.9042 13.2491 50° Northeast  Level Estimated
Wed 07:36:00 AM 55.9753 13.3988 50° Northeast  Level Estimated
Wed 07:37:00 AM 56.0462 13.5490 50° Northeast  Level Estimated
Wed 07:38:00 AM 56.1170 13.6997 50° Northeast  Level Estimated
Wed 07:39:00 AM 56.1875 13.8511 50° Northeast  Level Estimated
Wed 07:40:00 AM 56.2579 14.0029 50° Northeast  Level Estimated
Wed 07:41:00 AM 56.3281 14.1554 50° Northeast  Level Estimated
Wed 07:42:00 AM 56.3981 14.3083 50° Northeast  Level Estimated
Wed 07:43:00 AM 56.4679 14.4619 51° Northeast  Level Estimated
Wed 07:44:00 AM 56.5375 14.6160 51° Northeast  Level Estimated
Wed 07:45:00 AM 56.6069 14.7707 51° Northeast  Level Estimated
Wed 07:46:00 AM 56.6762 14.9260 51° Northeast  Level Estimated
Wed 07:47:00 AM 56.7452 15.0818 51° Northeast  Level Estimated
Wed 07:48:00 AM 56.8141 15.2382 51° Northeast  Level Estimated
Wed 07:49:00 AM 56.8827 15.3951 51° Northeast  Level Estimated
Wed 07:50:00 AM 56.9584 15.5694 51° Northeast  Level Estimated
Wed 07:51:00 AM 57.0339 15.7444 52° Northeast  Level Estimated
Wed 07:52:00 AM 57.1091 15.9201 52° Northeast  Level Estimated
Wed 07:53:00 AM 57.1841 16.0966 52° Northeast  Level Estimated
Wed 07:54:00 AM 57.2588 16.2737 52° Northeast  Level Estimated
Wed 07:55:00 AM 57.3333 16.4516 52° Northeast  Level Estimated
Wed 07:56:00 AM 57.4075 16.6301 52° Northeast  Level Estimated
Wed 07:57:00 AM 57.4815 16.8095 52° Northeast  Level Estimated
Wed 07:58:00 AM 57.5552 16.9895 53° Northeast  Level Estimated
Wed 07:59:00 AM 57.6286 17.1702 53° Northeast  Level Estimated
Wed 08:00:00 AM 57.7018 17.3517 53° Northeast  Level Estimated
Wed 08:01:00 AM 57.7747 17.5340 53° Northeast  Level Estimated
Wed 08:02:00 AM 57.8474 17.7169 53° Northeast  Level Estimated
Wed 08:03:00 AM 57.9198 17.9006 53° Northeast  Level Estimated
Wed 08:04:00 AM 57.9920 18.0851 54° Northeast  Level Estimated
Wed 08:05:00 AM 58.0661 18.2761 54° Northeast  Level Estimated
Wed 08:06:00 AM 58.1399 18.4678 54° Northeast  Level Estimated
Wed 08:07:00 AM 58.2135 18.6604 54° Northeast  Level Estimated
Wed 08:08:00 AM 58.2867 18.8538 54° Northeast  Level Estimated
Wed 08:09:00 AM 58.3596 19.0479 54° Northeast  Level Estimated
Wed 08:10:00 AM 58.4323 19.2429 54° Northeast  Level Estimated
Wed 08:11:00 AM 58.5047 19.4387 55° Northeast  Level Estimated
Wed 08:12:00 AM 58.5767 19.6353 55° Northeast  Level Estimated
Wed 08:13:00 AM 58.6485 19.8327 55° Northeast  Level Estimated
Wed 08:14:00 AM 58.7200 20.0309 55° Northeast  Level Estimated
Wed 08:15:00 AM 58.7911 20.2299 55° Northeast  Level Estimated
Wed 08:16:00 AM 58.8619 20.4297 56° Northeast  Level Estimated
Wed 08:17:00 AM 58.9325 20.6304 56° Northeast  Level Estimated
Wed 08:18:00 AM 59.0027 20.8318 56° Northeast  Level Estimated
Wed 08:19:00 AM 59.0726 21.0341 56° Northeast  Level Estimated
Wed 08:20:00 AM 59.1422 21.2372 56° Northeast  Level Estimated
Wed 08:21:00 AM 59.2115 21.4412 56° Northeast  Level Estimated
Wed 08:22:00 AM 59.2804 21.6460 57° Northeast  Level Estimated
Wed 08:23:00 AM 59.3491 21.8515 57° Northeast  Level Estimated
Wed 08:24:00 AM 59.4174 22.0580 57° Northeast  Level Estimated
Wed 08:25:00 AM 59.4854 22.2652 57° Northeast  Level Estimated
Wed 08:26:00 AM 59.5530 22.4733 57° Northeast  Level Estimated
Wed 08:27:00 AM 59.6203 22.6823 57° Northeast  Level Estimated
Wed 08:28:00 AM 59.6873 22.8920 58° Northeast  Level Estimated
Wed 08:29:00 AM 59.7540 23.1026 58° Northeast  Level Estimated
Wed 08:30:00 AM 59.8203 23.3141 58° Northeast  Level Estimated
Wed 08:31:00 AM 59.8862 23.5264 58° Northeast  Level Estimated
Wed 08:32:00 AM 59.9519 23.7395 58° Northeast  Level Estimated
Wed 08:33:00 AM 60.0172 23.9535 59° Northeast  Level Estimated
Wed 08:34:00 AM 60.0821 24.1683 59° Northeast  Level Estimated
Wed 08:35:00 AM 60.1467 24.3840 59° Northeast  Level Estimated
Wed 08:36:00 AM 60.2109 24.6005 59° Northeast  Level Estimated
Wed 08:37:00 AM 60.2748 24.8179 59° Northeast  Level Estimated
Wed 08:38:00 AM 60.3172 24.9633 59° Northeast  Level Estimated
Wed 08:39:00 AM 60.3172 24.9633 37° Northeast  Level Estimated
Wed 08:40:00 AM 60.3172 24.9633 37° Northeast  Level Estimated
Wed 08:41:00 AM 60.3172 24.9633 37° Northeast  Level Estimated
Wed 08:42:00 AM 60.3172 24.9633 37° Northeast  Level Estimated
Wed 08:43:00 AM 60.3172 24.9633 37° Northeast  Level Estimated
Wed 08:44:00 AM 60.3172 24.9633 37° Northeast  Level Estimated
Wed 08:45:00 AM 60.3172 24.9633 37° Northeast  Level Estimated
Wed 08:46:00 AM 60.3172 24.9633 37° Northeast  Level Estimated
Wed 08:47:00 AM 60.3172 24.9633 37° Northeast  Level Estimated
Wed 08:48:00 AM 60.3172 24.9633 37° Northeast  Level Estimated
Wed 08:49:00 AM 60.3172 24.9633 37° Northeast  Level Estimated
Wed 08:50:00 AM 60.3172 24.9633 37° Northeast  Level Estimated
Wed 08:51:00 AM 60.3172 24.9633 37° Northeast  Level Estimated

Login

Don't have an account? Register now (free) for customized features, flight alerts, and more!